This is the latest recevied weather packets stored in our database for station/object EB2EMZ-W. If no packets are shown the sender has not sent any weather packets the latest 10 day(s).
| Time | Temp. | Humidity | Pressure | Rain* | Wind** | Luminosity | Snow |
|---|---|---|---|---|---|---|---|
| 1777720218 | 18.89° C | 76% | 1000 hPa | 6.1 mm | - | - | - |
| 1777718409 | 20° C | 58% | 1000 hPa | 6.1 mm | - | - | - |
| 1777716597 | 21.67° C | 43% | 1000 hPa | 0 mm | - | - | - |
| 1777714788 | 23.33° C | 36% | 1000 hPa | 0 mm | - | - | - |
| 1777712977 | 21.67° C | 41% | 1000 hPa | 0 mm | - | - | - |
| 1777711168 | 21.11° C | 43% | 1000 hPa | 0 mm | - | - | - |
| 1777709359 | 20.56° C | 45% | 1000 hPa | 0 mm | - | - | - |
| 1777707548 | 19.44° C | 48% | 1000 hPa | 0 mm | - | - | - |
| 1777705738 | 18.89° C | 51% | 1000 hPa | 0 mm | - | - | - |
| 1777703927 | 18.33° C | 56% | 1000 hPa | 0 mm | - | - | - |
| 1777702117 | 18.33° C | 54% | 999 hPa | 0 mm | - | - | - |
| 1777700307 | 18.33° C | 52% | 1000 hPa | 0 mm | - | - | - |
| 1777698498 | 18.33° C | 52% | 1000 hPa | 0 mm | - | - | - |
| 1777696687 | 18.33° C | 51% | 1000 hPa | 0 mm | - | - | - |
| 1777694878 | 18.33° C | 49% | 1000 hPa | 0 mm | - | - | - |
| 1777693066 | 18.33° C | 51% | 1000 hPa | 0 mm | - | - | - |
| 1777691257 | 18.33° C | 49% | 1000 hPa | 0 mm | - | - | - |
| 1777689446 | 18.33° C | 50% | 1000 hPa | 0 mm | - | - | - |
| 1777687636 | 18.89° C | 48% | 1000 hPa | 0 mm | - | - | - |
| 1777685825 | 18.89° C | 50% | 1001 hPa | 0 mm | - | - | - |
| 1777684016 | 18.89° C | 50% | 1001 hPa | 0 mm | - | - | - |
| 1777682205 | 18.89° C | 53% | 1001 hPa | 0 mm | - | - | - |
| 1777680394 | 18.89° C | 55% | 1001 hPa | 0 mm | - | - | - |
| 1777678583 | 18.89° C | 55% | 1001 hPa | 0 mm | - | - | - |
| 1777675747 | 18.89° C | 54% | 1001 hPa | 0 mm | - | - | - |
* Rain latest hour (hover to see other rain measurements)
** Current wind speed in m/s (hover to see current wind gust speed)